Updated27/10/2021 19:05 
 

GeoURL
free counters
Scottish Weather Network UK Weather Network Cumulus Top Weather Sites

Peebles Weather - Nearby METAR Reports

Raw Data, Raw Data Expanded

Ignore low humidity and Dew Point values. Something wrong with the sensor.
Daytime temperatures are in direct sunlight so may be higher than official air temperature values.
As with any other website, we log your IP address and browser type in the server logs for diagnostic reasons. Cookies are used to record visit time and gauges preferences. No personal information is stored or processed.

All times are in local time (GMT, or BST in summer) unless specified.

2021/10/27 17:50 EGPH 271750Z 27008KT 230V010 8000 -RA FEW007 BKN013 OVC024 15/14 Q1001
15.9°C 0.0 mm 6.3 mm 7.2 mm 3.5 mph 8.3 mph 997.0 hPa 67% X-Ray Solar Flare Level
Planetary K-Index
Planetary K-Index History
Station Warn Rain Snow Flood Wind Ltng Heat Cold Glob Moon Temp Rain 1h Rain Wed Rain 24h Wind 10m Gust Pressure Hum Proton Levels
Rain
m Waning Gibbous Cool F1-NE F: A: Kp:0 SSN:0

METAR Reports

 

EGPH - Edinburgh Airpor, United Kingdom
Distance from station: NNW 22mi, 36km
Updated: 27/10/2021 18:50
Light rain, Overcast
Light rain, Overcast
 Wind from W
Wind: W 9 mph , 15 km/h
Temperature: 15°C
Dew Point: 14°C
Humidity: 94%
Barometer: 1001 hPa
Summary: Light rain
Clouds: Overcast
Visibility: 5 miles , 8 km
Cloud details: Few Clouds 213 m
Mostly cloudy 396 m
Overcast 732 m
2021/10/27 17:50 EGPH 271750Z 27008KT 230V010 8000 -RA FEW007 BKN013 OVC024 15/14 Q1001
EGOM - Spadeadam, United Kingdom
Distance from station: SSE 49mi, 79km
Updated: 27/10/2021 17:50
NOT Current
Rain, Mostly cloudy
Rain, Mostly cloudy
 Wind from SW
Wind: SW 18 mph , 30 km/h
Temperature: 13°C
Dew Point: 13°C
Humidity: 100%
Barometer: 1004 hPa
Summary: Rain
Clouds: Mostly cloudy
Visibility: 6 miles , 10 km
Cloud details: Mostly cloudy 213 m
Partly cloudy 457 m
Mostly cloudy 792 m
2021/10/27 16:50 EGOM 271650Z AUTO 22016KT 9999 RA BKN007/// SCT015/// BKN026/// 13/13 Q1004
 
EGNC - Carlisle, United Kingdom
Distance from station: SSE 51mi, 82km
Updated: 27/03/2020 14:50
NOT Current
Mostly cloudy
Mostly cloudy
 Wind from ENE
Wind: ENE 9 mph , 15 km/h
Temperature: 11°C
Dew Point: 4°C
Humidity: 62%
Barometer: 1029 hPa
Clouds: Mostly cloudy
Visibility: 6 miles , 9 km
Cloud details: Few Clouds 1067 m
Mostly cloudy 1372 m
2020/03/27 14:50 EGNC 271450Z 07008KT 050V110 9000 FEW035 BKN045 11/04 Q1029
EGPF - Glasgow Airport, United Kingdom
Distance from station: WNW 51mi, 82km
Updated: 27/10/2021 18:50
Light rain, Thunderstorm
Light rain, Thunderstorm
 Wind from varies
Wind: varies 2 mph , 4 km/h
Temperature: 13°C
Dew Point: 13°C
Humidity: 100%
Barometer: 1001 hPa
Summary: Light rain
Clouds: Thunderstorm
Visibility: 6 miles , 10 km
Cloud details: Overcast 213 m
2021/10/27 17:50 EGPF 271750Z AUTO VRB02KT 9999 -RA OVC007/// //////TCU 13/13 Q1001
 
EGQL - Leuchars Raf, United Kingdom
Distance from station: NNE 53mi, 85km
Updated: 27/10/2021 18:50
Rain, Mostly cloudy
Rain, Mostly cloudy
 Wind from SSE
Wind: SSE 5 mph , 7 km/h
Temperature: 13°C
Dew Point: 13°C
Humidity: 100%
Barometer: 1001 hPa
Summary: Rain
Clouds: Mostly cloudy
Visibility: 3 miles , 5 km
Cloud details: Mostly cloudy 762 m
Mostly cloudy 1036 m
2021/10/27 17:50 EGQL 271750Z 16004KT 4500 RA BKN025 BKN034 13/13 Q1001 RMK GRN
EGPK - Prestwick(Civ/Na, United Kingdom
Distance from station: W 55mi, 89km
Updated: 27/10/2021 18:50
Light rain, Few clouds
Light rain, Few clouds
 Wind from S
Wind: S 9 mph , 15 km/h
Temperature: 14°C
Dew Point: 13°C
Humidity: 94%
Barometer: 1001 hPa
Summary: Light rain
Clouds: Few Clouds
Visibility: 6 miles , 10 km
Cloud details: Few Clouds 975 m
2021/10/27 17:50 EGPK 271750Z 19008KT 170V250 9999 -RA FEW032 14/13 Q1001
 
EGPN - Dundee/Riverside, United Kingdom
Distance from station: N 56mi, 90km
Updated: 27/10/2021 18:50
Rain drizzle, Few clouds
Rain drizzle, Few clouds
 Wind from calm
Wind: Calm
Temperature: 13°C
Dew Point: 13°C
Humidity: 100%
Barometer: 1001 hPa
Summary: Rain Drizzle
Clouds: Few Clouds
Visibility: 5 miles , 8 km
Cloud details: Few Clouds 152 m
2021/10/27 17:50 EGPN 271750Z 00000KT 8000 RADZ FEW005 13/13 Q1001
EGNT - Newcastle, United Kingdom
Distance from station: SE 72mi, 116km
Updated: 27/10/2021 18:50
Partly cloudy
Partly cloudy
 Wind from SSW
Wind: SSW 18 mph , 30 km/h, Gust: 30 mph , 48 km/h
Temperature: 16°C
Dew Point: 12°C
Humidity: 77%
Barometer: 1005 hPa
Clouds: Partly cloudy
Visibility: 6 miles , 10 km
Cloud details: Partly cloudy 579 m
2021/10/27 17:50 EGNT 271750Z 21016G26KT 9999 SCT019 16/12 Q1005
 
EGNV - Tees-Side, United Kingdom
Distance from station: SE 104mi, 168km
Updated: 27/10/2021 18:50
Nearby showers, Partly cloudy
Nearby showers, Partly cloudy
 Wind from SSW
Wind: SSW 17 mph , 28 km/h, Gust: 29 mph , 46 km/h
Temperature: 16°C
Dew Point: 11°C
Humidity: 72%
Barometer: 1007 hPa
Summary: Nearby Showers
Clouds: Partly cloudy
Visibility: 6 miles , 10 km
Cloud details: Few Clouds 488 m
Partly cloudy 732 m
2021/10/27 17:50 EGNV 271750Z 20015G25KT 9999 VCSH FEW016 SCT024 16/11 Q1007
EGPD - Aberdeen/Dyce, United Kingdom
Distance from station: NNE 114mi, 183km
Updated: 27/10/2021 18:50
Light rain, Partly cloudy
Light rain, Partly cloudy
 Wind from S
Wind: S 10 mph , 17 km/h
Temperature: 14°C
Dew Point: 13°C
Humidity: 94%
Barometer: 1000 hPa
Summary: Light rain
Clouds: Partly cloudy
Visibility: 6 miles , 10 km
2021/10/27 17:50 EGPD 271750Z 17009KT 9999 -RA NSC 14/13 Q1000 RERA
 
EGNS - Isle Of Man/Rona, United Kingdom
Distance from station: SSW 122mi, 197km
Updated: 27/10/2021 18:50
Rain, Overcast
Rain, Overcast
 Wind from SSW
Wind: SSW 29 mph , 46 km/h
Temperature: 15°C
Dew Point: 14°C
Humidity: 94%
Barometer: 1004 hPa
Summary: Rain
Clouds: Overcast
Visibility: 4 miles , 6 km
Cloud details: Overcast 244 m
2021/10/27 17:50 EGNS 271750Z 21025KT 6000 RA OVC008 15/14 Q1004 TEMPO 4000
EGAC - Belfast Harbour, United Kingdom
Distance from station: WSW 128mi, 206km
Updated: 27/10/2021 18:50
Light rain, Clear
Light rain, Clear
 Wind from SSW
Wind: SSW 6 mph , 9 km/h
Temperature: 14°C
Dew Point: 14°C
Humidity: 100%
Barometer: 1001 hPa
Summary: Light rain
Clouds: Clear
Visibility: 6 miles , 10 km
2021/10/27 17:50 EGAC 271750Z AUTO 20005KT 9999 -RA NCD 14/14 Q1001
 
EGPE - Inverness/Dalcro, United Kingdom
Distance from station: NNW 134mi, 215km
Updated: 27/10/2021 18:50
Few Clouds
Few Clouds
 Wind from SSW
Wind: SSW 5 mph , 7 km/h
Temperature: 13°C
Dew Point: 10°C
Humidity: 82%
Barometer: 998 hPa
Clouds: Few Clouds
Visibility: 6 miles , 10 km
Cloud details: Few Clouds 1433 m
2021/10/27 17:50 EGPE 271750Z 21004KT 9999 FEW047 13/10 Q0998
XHTML 1.1 | CSS